createdAt,value
2022-11-09T00:59:37.474Z,5.10
2022-11-09T01:02:06.326Z,4.80
2022-11-09T01:04:36.211Z,4.37
2022-11-09T01:07:05.046Z,5.10
2022-11-09T01:09:33.870Z,4.97
2022-11-09T01:12:02.576Z,4.83
2022-11-09T01:14:32.638Z,5.10
2022-11-09T01:17:02.658Z,4.90
2022-11-09T01:19:31.299Z,4.43
2022-11-09T01:25:09.919Z,3.83
2022-11-09T01:27:38.754Z,3.90
2022-11-09T01:30:08.640Z,3.60
2022-11-09T01:32:38.636Z,3.37
2022-11-09T01:35:07.971Z,3.40
2022-11-09T01:37:36.539Z,3.30
2022-11-09T01:40:05.967Z,3.10
2022-11-09T01:42:38.023Z,3.20
2022-11-09T01:45:31.654Z,3.67
2022-11-09T01:48:06.062Z,3.27
2022-11-09T01:50:41.159Z,3.60
2022-11-09T01:53:15.643Z,3.73
2022-11-09T01:55:46.373Z,3.67
2022-11-09T01:58:22.146Z,3.70
2022-11-09T02:00:52.313Z,3.75
2022-11-09T02:03:28.351Z,3.20
2022-11-09T02:05:58.361Z,2.93
2022-11-09T02:08:27.716Z,2.93
2022-11-09T02:11:08.913Z,2.77
2022-11-09T02:13:40.075Z,2.27
2022-11-09T02:16:13.883Z,2.50
2022-11-09T02:18:51.706Z,2.47
2022-11-09T02:21:22.682Z,1.90
2022-11-09T02:23:52.090Z,2.10
2022-11-09T02:26:26.412Z,1.93
2022-11-09T02:28:56.591Z,2.07
2022-11-09T02:31:29.584Z,2.07
2022-11-09T02:34:04.356Z,2.20
2022-11-09T02:36:36.025Z,2.80
2022-11-09T02:39:08.245Z,1.90
2022-11-09T02:41:45.708Z,2.23
2022-11-09T02:44:15.642Z,2.10
2022-11-09T02:46:44.652Z,2.00
2022-11-09T02:49:13.680Z,2.07
2022-11-09T02:51:43.725Z,2.00
2022-11-09T02:54:12.631Z,1.90
2022-11-09T02:56:42.452Z,1.80
2022-11-09T02:59:11.313Z,1.80
2022-11-09T03:01:41.507Z,2.30
2022-11-09T03:04:11.074Z,1.70
2022-11-09T03:06:39.892Z,1.50
2022-11-09T03:09:15.202Z,1.50
2022-11-09T03:18:10.808Z,1.30
2022-11-09T03:20:39.934Z,1.70
2022-11-09T03:23:11.128Z,1.57
2022-11-09T03:25:42.572Z,1.30
2022-11-09T03:28:11.533Z,1.50
2022-11-09T03:30:42.282Z,1.35
2022-11-09T03:33:14.434Z,1.40
2022-11-09T03:35:44.857Z,1.10
2022-11-09T03:38:18.404Z,1.10
2022-11-09T03:40:49.228Z,1.30
2022-11-09T03:43:19.187Z,1.70
2022-11-09T03:45:51.540Z,1.30
2022-11-09T03:48:20.245Z,1.20
2022-11-09T03:50:48.886Z,1.40
2022-11-09T03:53:17.789Z,1.10
2022-11-09T03:55:48.332Z,1.30
2022-11-09T03:58:16.988Z,1.00
2022-11-09T04:00:47.767Z,1.20
2022-11-09T04:03:16.580Z,1.43
2022-11-09T04:05:45.419Z,1.60
2022-11-09T04:08:14.121Z,1.40
2022-11-09T04:10:42.681Z,1.20
2022-11-09T04:13:12.760Z,1.73
2022-11-09T04:15:41.313Z,1.57
2022-11-09T04:18:14.655Z,1.70
2022-11-09T04:20:44.043Z,1.60
2022-11-09T04:23:14.235Z,1.67
2022-11-09T04:25:43.891Z,1.50
2022-11-09T04:28:21.562Z,1.53
2022-11-09T04:30:50.266Z,1.73
2022-11-09T04:33:19.241Z,1.83
2022-11-09T04:35:48.329Z,1.70
2022-11-09T04:38:17.226Z,2.13
2022-11-09T04:40:46.170Z,2.33
2022-11-09T04:43:16.153Z,2.33
2022-11-09T04:45:47.515Z,2.10
2022-11-09T04:48:16.137Z,2.27
2022-11-09T04:50:44.940Z,2.50
2022-11-09T04:53:15.560Z,2.83
2022-11-09T04:55:44.625Z,2.22
2022-11-09T04:58:13.435Z,2.00
2022-11-09T05:00:42.112Z,2.80
2022-11-09T05:03:12.289Z,2.63
2022-11-09T05:05:48.016Z,2.70
2022-11-09T05:08:17.262Z,2.50
2022-11-09T05:10:46.013Z,2.23
2022-11-09T05:13:15.637Z,2.30
2022-11-09T05:15:44.455Z,2.00
2022-11-09T05:18:14.615Z,2.30
2022-11-09T05:20:43.295Z,1.97
2022-11-09T05:23:29.171Z,2.40
2022-11-09T05:25:58.359Z,2.07
2022-11-09T05:28:27.419Z,2.20
2022-11-09T05:30:56.205Z,2.20
2022-11-09T05:33:26.193Z,2.30
2022-11-09T05:35:56.178Z,2.67
2022-11-09T05:38:25.474Z,2.60
2022-11-09T05:40:54.723Z,3.10
2022-11-09T05:43:23.657Z,3.20
2022-11-09T05:45:52.421Z,3.60
2022-11-09T05:48:21.295Z,4.50
2022-11-09T05:50:51.322Z,4.40
2022-11-09T05:53:25.995Z,6.27
2022-11-09T05:55:54.632Z,5.97
2022-11-09T05:58:25.530Z,6.17
2022-11-09T06:00:54.148Z,6.10
2022-11-09T06:16:25.415Z,4.37
2022-11-09T06:18:56.035Z,4.13
2022-11-09T06:22:08.143Z,4.57
2022-11-09T06:24:36.914Z,4.90
2022-11-09T06:51:02.748Z,4.90
2022-11-09T06:53:33.639Z,4.50
2022-11-09T06:56:04.575Z,4.10
2022-11-09T06:58:48.489Z,3.43
2022-11-09T07:01:19.318Z,3.43
2022-11-09T07:03:48.125Z,2.70
2022-11-09T07:07:02.857Z,2.87
2022-11-09T07:13:40.626Z,2.63
2022-11-09T07:16:12.175Z,2.37
2022-11-09T07:18:41.500Z,2.67
2022-11-09T07:21:14.234Z,1.80
2022-11-09T07:23:43.926Z,1.77
2022-11-09T07:26:12.729Z,1.77
2022-11-09T07:28:43.047Z,1.80
2022-11-09T07:31:12.148Z,1.80
2022-11-09T07:33:43.586Z,1.50
2022-11-09T07:36:14.617Z,1.50
2022-11-09T07:38:49.949Z,1.70
2022-11-09T07:41:18.700Z,1.80
2022-11-09T07:43:48.834Z,1.47
2022-11-09T07:46:18.155Z,1.60
2022-11-09T07:48:49.364Z,1.50
2022-11-09T07:51:18.166Z,1.90
2022-11-09T07:53:47.164Z,1.60
2022-11-09T07:56:16.039Z,1.40
2022-11-09T07:58:44.757Z,1.33
2022-11-09T08:01:15.257Z,1.40
2022-11-09T08:03:44.031Z,1.20
2022-11-09T08:06:18.075Z,1.20
2022-11-09T08:08:47.915Z,1.25
2022-11-09T08:11:19.160Z,1.27
2022-11-09T08:13:48.207Z,1.30
2022-11-09T08:16:18.585Z,1.30
2022-11-09T08:18:47.825Z,1.33
2022-11-09T08:21:54.178Z,1.60
2022-11-09T08:24:24.168Z,1.70
2022-11-09T08:26:54.592Z,2.00
2022-11-09T08:29:27.263Z,1.70
2022-11-09T08:31:57.581Z,2.03
2022-11-09T08:34:29.823Z,2.07
2022-11-09T08:37:18.314Z,1.90
2022-11-09T08:39:55.618Z,2.30
2022-11-09T10:25:18.367Z,1.70
2022-11-09T10:44:19.400Z,1.10
2022-11-09T10:47:09.487Z,1.00
2022-11-09T10:50:08.811Z,1.07
2022-11-09T10:53:10.323Z,1.13
2022-11-09T10:56:20.219Z,1.20
2022-11-09T11:22:40.709Z,1.87
2022-11-09T11:38:43.445Z,1.50
2022-11-09T11:42:36.904Z,1.17
2022-11-09T11:45:41.500Z,1.48
2022-11-09T11:52:12.098Z,2.23
2022-11-09T11:55:19.799Z,1.53
2022-11-09T11:58:22.688Z,1.57
2022-11-09T12:01:20.518Z,1.70
2022-11-09T12:04:32.781Z,1.70
2022-11-09T12:07:29.503Z,1.70
2022-11-09T12:32:23.886Z,2.20
2022-11-09T12:35:24.106Z,1.93
2022-11-09T12:38:16.585Z,1.67
2022-11-09T12:48:19.088Z,1.80
2022-11-09T12:51:36.697Z,1.80
2022-11-09T12:54:25.546Z,2.30
2022-11-09T12:57:17.305Z,1.67
2022-11-09T13:00:05.615Z,1.80
2022-11-09T13:09:43.692Z,1.73
2022-11-09T13:16:14.565Z,2.28
2022-11-09T13:19:01.367Z,1.80
2022-11-09T13:21:49.985Z,1.50
2022-11-09T13:24:59.922Z,1.80
2022-11-09T13:27:48.568Z,2.23
2022-11-09T13:30:44.150Z,1.87
2022-11-09T13:33:31.972Z,1.80
2022-11-09T13:36:22.648Z,1.93
2022-11-09T13:39:32.671Z,1.90
2022-11-09T13:42:30.723Z,2.00
2022-11-09T13:45:34.610Z,1.77
2022-11-09T13:48:37.673Z,1.90
2022-11-09T13:51:38.267Z,1.67
2022-11-09T13:54:33.537Z,2.73
2022-11-09T13:57:22.128Z,2.07
2022-11-09T14:00:18.895Z,1.90
2022-11-09T14:03:19.192Z,1.80
2022-11-09T14:06:06.224Z,2.10
2022-11-09T14:08:53.311Z,2.10
2022-11-09T14:12:11.688Z,2.20
2022-11-09T14:15:14.567Z,2.20
2022-11-09T14:18:13.703Z,2.20
2022-11-09T14:21:16.098Z,2.87
2022-11-09T14:24:04.426Z,2.37
2022-11-09T14:27:12.661Z,2.67
2022-11-09T14:30:02.521Z,2.60
2022-11-09T14:32:54.102Z,3.20
2022-11-09T14:35:40.896Z,2.77
2022-11-09T14:38:33.028Z,2.50
2022-11-09T14:41:22.951Z,2.50
2022-11-09T14:44:20.870Z,2.40
2022-11-09T14:47:15.335Z,2.80
2022-11-09T14:50:03.756Z,3.00
2022-11-09T14:52:51.312Z,2.33
2022-11-09T14:55:42.105Z,2.50
2022-11-09T14:58:31.284Z,2.50
2022-11-09T15:01:24.031Z,2.33
2022-11-09T15:04:14.311Z,2.33
2022-11-09T15:07:04.722Z,2.50
2022-11-09T15:09:53.966Z,2.30
2022-11-09T15:12:46.259Z,1.93
2022-11-09T15:15:35.625Z,2.43
2022-11-09T15:18:33.378Z,2.70
2022-11-09T15:21:33.984Z,2.70
2022-11-09T15:24:22.909Z,2.83
2022-11-09T15:27:29.764Z,2.47
2022-11-09T15:30:34.168Z,2.73
2022-11-09T15:33:25.397Z,3.10
2022-11-09T15:36:38.960Z,2.75
2022-11-09T15:39:29.545Z,3.10
2022-11-09T15:42:16.241Z,3.57
2022-11-09T15:45:03.153Z,3.23
2022-11-09T15:47:52.610Z,2.97
2022-11-09T15:50:39.542Z,2.93
2022-11-09T15:53:26.514Z,3.70
2022-11-09T15:56:17.486Z,4.07
2022-11-09T15:59:04.193Z,4.37
2022-11-09T16:01:51.237Z,4.40
2022-11-09T16:04:37.829Z,3.73
2022-11-09T16:07:24.506Z,4.47
2022-11-09T16:10:14.687Z,3.97
2022-11-09T16:13:03.022Z,4.35
2022-11-09T16:15:49.705Z,4.00
2022-11-09T16:18:36.603Z,4.30
2022-11-09T16:21:23.489Z,4.33
2022-11-09T16:24:10.216Z,4.03
2022-11-09T16:26:59.571Z,4.23
2022-11-09T16:29:54.575Z,4.37
2022-11-09T16:32:41.831Z,4.13
2022-11-09T16:35:28.925Z,3.67
2022-11-09T16:38:16.155Z,3.50
2022-11-09T16:41:04.774Z,3.53
2022-11-09T16:43:53.958Z,3.90
2022-11-09T16:46:43.570Z,3.63
2022-11-09T16:49:30.478Z,3.60
2022-11-09T16:52:17.296Z,4.10
2022-11-09T16:55:04.317Z,4.13
2022-11-09T16:57:50.712Z,4.00
2022-11-09T17:01:03.780Z,3.77
2022-11-09T17:03:45.886Z,4.57
2022-11-09T17:06:33.976Z,4.20
2022-11-09T17:09:20.966Z,3.90
2022-11-09T17:12:07.953Z,3.90
2022-11-09T17:14:55.373Z,3.67
2022-11-09T17:17:42.189Z,3.50
2022-11-09T17:20:30.044Z,3.37
2022-11-09T17:23:18.866Z,3.10
2022-11-09T17:26:07.560Z,3.17
2022-11-09T17:28:54.510Z,2.70
2022-11-09T17:31:42.212Z,2.63
2022-11-09T17:34:30.533Z,3.17
2022-11-09T17:37:18.937Z,2.67
2022-11-09T17:40:06.257Z,3.50
2022-11-09T17:42:53.302Z,2.50
2022-11-09T17:45:40.449Z,2.93
2022-11-09T17:48:27.480Z,2.40
2022-11-09T17:51:16.123Z,3.10
2022-11-09T17:54:04.886Z,2.93
2022-11-09T17:56:52.069Z,2.70
2022-11-09T17:59:39.028Z,2.87
2022-11-09T18:02:26.505Z,2.63
2022-11-09T18:05:17.099Z,2.67
2022-11-09T18:08:09.820Z,2.73
2022-11-09T18:11:05.418Z,3.20
2022-11-09T18:23:57.871Z,2.80
2022-11-09T18:27:10.656Z,3.03
2022-11-09T18:29:59.882Z,2.60
2022-11-09T18:32:47.378Z,3.10
2022-11-09T18:35:34.156Z,2.80
2022-11-09T18:38:23.293Z,2.90
2022-11-09T18:41:15.602Z,2.57
2022-11-09T18:44:03.889Z,2.73
2022-11-09T18:46:50.433Z,3.13
2022-11-09T18:49:37.270Z,2.90
2022-11-09T18:52:24.162Z,2.70
2022-11-09T18:55:11.102Z,2.87
2022-11-09T18:57:57.961Z,2.90
2022-11-09T19:00:47.313Z,3.00
2022-11-09T19:03:34.975Z,2.60
2022-11-09T19:06:24.343Z,3.73
2022-11-09T19:09:34.986Z,3.70
2022-11-09T19:15:24.983Z,3.70
2022-11-09T19:18:15.157Z,3.53
2022-11-09T19:21:02.241Z,3.60
2022-11-09T19:23:48.709Z,2.83
2022-11-09T19:26:36.664Z,3.13
2022-11-09T19:29:23.399Z,2.77
2022-11-09T19:32:10.613Z,2.80
2022-11-09T19:34:58.884Z,3.17
2022-11-09T19:37:45.459Z,2.83
2022-11-09T19:40:38.442Z,3.00
2022-11-09T19:43:26.707Z,3.53
2022-11-09T19:46:13.597Z,2.67
2022-11-09T19:49:00.739Z,3.03
2022-11-09T19:51:52.348Z,2.60
2022-11-09T19:54:38.993Z,3.20
2022-11-09T19:57:25.807Z,3.10
2022-11-09T20:00:13.487Z,3.27
2022-11-09T20:03:00.747Z,3.60
2022-11-09T20:05:47.752Z,3.15
2022-11-09T20:08:36.886Z,3.27
2022-11-09T20:11:43.007Z,2.70
2022-11-09T20:14:29.531Z,3.00
2022-11-09T20:17:16.248Z,3.07
2022-11-09T20:20:02.752Z,3.47
2022-11-09T20:22:49.511Z,3.10
2022-11-09T20:25:37.390Z,3.40
2022-11-09T20:28:24.368Z,3.35
2022-11-09T20:31:11.903Z,2.90
2022-11-09T20:33:59.602Z,5.23
2022-11-09T20:36:46.267Z,4.10
2022-11-09T20:39:37.075Z,4.10
2022-11-09T20:42:25.519Z,3.70
2022-11-09T20:45:12.253Z,3.90
2022-11-09T20:48:19.377Z,3.87
2022-11-09T20:51:08.279Z,3.73
2022-11-09T20:53:54.915Z,4.03
2022-11-09T20:56:41.536Z,3.97
2022-11-09T20:59:29.924Z,3.87
2022-11-09T21:02:17.171Z,4.10
2022-11-09T21:05:07.462Z,4.23
2022-11-09T21:07:54.151Z,4.73
2022-11-09T21:10:40.801Z,4.00
2022-11-09T21:13:27.360Z,4.20
2022-11-09T21:16:18.419Z,4.30
2022-11-09T21:19:05.103Z,5.27
2022-11-09T21:21:51.912Z,4.63
2022-11-09T21:24:58.472Z,4.47
2022-11-09T21:28:02.879Z,4.27
2022-11-09T21:30:50.089Z,4.77
2022-11-09T21:33:38.112Z,5.27
2022-11-09T21:36:25.174Z,5.20
2022-11-09T21:39:12.129Z,4.80
2022-11-09T21:41:58.902Z,4.63
2022-11-09T21:44:49.565Z,4.83
2022-11-09T21:47:36.431Z,5.07
2022-11-09T21:50:24.480Z,4.80
2022-11-09T21:53:11.300Z,4.23
2022-11-09T21:56:00.883Z,4.73
2022-11-09T21:58:49.213Z,4.20
2022-11-09T22:01:36.408Z,4.30
2022-11-09T22:04:22.909Z,4.30
2022-11-09T22:07:11.105Z,4.87
2022-11-09T22:10:10.784Z,4.93
2022-11-09T22:13:19.826Z,4.60
2022-11-09T22:16:07.689Z,4.50
2022-11-09T22:19:12.656Z,4.17
2022-11-09T22:21:59.457Z,4.67
2022-11-09T22:24:47.759Z,4.67
2022-11-09T22:27:34.862Z,5.27
2022-11-09T22:30:22.327Z,5.03
2022-11-09T22:33:09.675Z,5.23
2022-11-09T22:35:56.918Z,5.18
2022-11-09T22:38:43.984Z,5.07
2022-11-09T22:41:32.410Z,4.47
2022-11-09T22:44:19.135Z,5.03
2022-11-09T22:47:06.013Z,5.20
2022-11-09T22:49:53.204Z,5.30
2022-11-09T22:52:39.932Z,4.20
2022-11-09T22:55:26.790Z,3.93
2022-11-09T22:58:15.583Z,4.75
2022-11-09T23:01:08.619Z,5.23
2022-11-09T23:03:55.726Z,4.53
2022-11-09T23:06:42.527Z,4.77
2022-11-09T23:09:29.297Z,4.00
2022-11-09T23:12:16.564Z,4.20
2022-11-09T23:15:06.829Z,5.60
2022-11-09T23:18:13.360Z,4.20
2022-11-09T23:21:03.057Z,3.87
2022-11-09T23:23:54.658Z,4.80
2022-11-09T23:26:41.560Z,4.30
2022-11-09T23:29:28.023Z,4.50
2022-11-09T23:32:16.278Z,4.43
2022-11-09T23:35:02.809Z,4.60
2022-11-09T23:37:49.731Z,4.00
2022-11-09T23:40:36.968Z,4.80
2022-11-09T23:43:23.478Z,4.80
2022-11-09T23:46:12.554Z,5.20
2022-11-09T23:49:00.663Z,4.63
2022-11-09T23:51:47.426Z,4.80
2022-11-09T23:54:34.265Z,6.30
2022-11-09T23:57:20.758Z,5.60
